Morrison, Colorado
Current Conditions -  °F | °C
As of 5:50 PM on Thursday 27 Nov 2014 (Local Time) from KBJC Reporting Station
Broken Clouds Broken Clouds  
Wind Chill: 59°   Ceiling: 15000
Heat Index: 59°   Visibility: 50mi
Dew Point: 18°   Wind: 17mph
Humidity: 20%   Direction: 330°NNW
Pressure: 30.12"   Gusts: 23mph
Location:  39.65°N, 105.19°W
Report Text: KBJC 280050Z 33015G20KT 50SM FEW080 BKN150 15/M08 A3012
Loading
Personal Weather Stations






























Interactive Weather Map New forecast layout! Learn more

10-Day Weather Forecast

Advertisements
Track Severe Weather on mobile